sensor_id;sensor_type;location;lat;lon;timestamp;P1;durP1;ratioP1;P2;durP2;ratioP2
21894;SDS011;11112;51.270;7.224;2023-02-28T00:01:33;12.00;;;5.85;;
21894;SDS011;11112;51.270;7.224;2023-02-28T00:04:01;10.98;;;5.47;;
21894;SDS011;11112;51.270;7.224;2023-02-28T00:06:28;9.48;;;5.00;;
21894;SDS011;11112;51.270;7.224;2023-02-28T00:08:55;11.48;;;4.90;;
21894;SDS011;11112;51.270;7.224;2023-02-28T00:11:22;8.27;;;4.90;;
21894;SDS011;11112;51.270;7.224;2023-02-28T00:13:49;9.88;;;4.47;;
21894;SDS011;11112;51.270;7.224;2023-02-28T00:16:18;7.60;;;4.35;;
21894;SDS011;11112;51.270;7.224;2023-02-28T00:18:47;8.43;;;4.30;;
21894;SDS011;11112;51.270;7.224;2023-02-28T00:21:15;7.70;;;4.05;;
21894;SDS011;11112;51.270;7.224;2023-02-28T00:23:44;10.05;;;4.55;;
21894;SDS011;11112;51.270;7.224;2023-02-28T00:26:11;8.30;;;4.72;;
21894;SDS011;11112;51.270;7.224;2023-02-28T00:28:38;9.75;;;4.25;;
21894;SDS011;11112;51.270;7.224;2023-02-28T00:31:05;7.88;;;4.20;;
21894;SDS011;11112;51.270;7.224;2023-02-28T00:33:34;6.68;;;3.70;;
21894;SDS011;11112;51.270;7.224;2023-02-28T00:36:05;8.23;;;3.90;;
21894;SDS011;11112;51.270;7.224;2023-02-28T00:38:34;10.55;;;4.45;;
21894;SDS011;11112;51.270;7.224;2023-02-28T00:41:02;9.98;;;4.40;;
21894;SDS011;11112;51.270;7.224;2023-02-28T00:43:31;8.88;;;4.30;;
21894;SDS011;11112;51.270;7.224;2023-02-28T00:45:59;10.32;;;4.72;;
21894;SDS011;11112;51.270;7.224;2023-02-28T00:48:26;9.68;;;4.60;;
21894;SDS011;11112;51.270;7.224;2023-02-28T00:50:55;10.95;;;4.45;;
21894;SDS011;11112;51.270;7.224;2023-02-28T00:53:22;7.55;;;4.22;;
21894;SDS011;11112;51.270;7.224;2023-02-28T00:55:49;8.80;;;4.40;;
21894;SDS011;11112;51.270;7.224;2023-02-28T00:58:16;8.57;;;4.20;;
21894;SDS011;11112;51.270;7.224;2023-02-28T01:00:43;9.38;;;4.00;;
21894;SDS011;11112;51.270;7.224;2023-02-28T01:03:14;8.52;;;3.90;;
21894;SDS011;11112;51.270;7.224;2023-02-28T01:05:42;8.00;;;3.72;;
21894;SDS011;11112;51.270;7.224;2023-02-28T01:08:11;7.95;;;4.07;;
21894;SDS011;11112;51.270;7.224;2023-02-28T01:10:38;9.43;;;4.00;;
21894;SDS011;11112;51.270;7.224;2023-02-28T01:13:05;10.10;;;4.07;;
21894;SDS011;11112;51.270;7.224;2023-02-28T01:15:32;8.25;;;4.10;;
21894;SDS011;11112;51.270;7.224;2023-02-28T01:17:59;9.50;;;5.03;;
21894;SDS011;11112;51.270;7.224;2023-02-28T01:20:27;7.78;;;4.05;;
21894;SDS011;11112;51.270;7.224;2023-02-28T01:22:54;8.07;;;4.20;;
21894;SDS011;11112;51.270;7.224;2023-02-28T01:25:22;8.65;;;3.70;;
21894;SDS011;11112;51.270;7.224;2023-02-28T01:27:49;8.07;;;3.97;;
21894;SDS011;11112;51.270;7.224;2023-02-28T01:30:17;9.05;;;3.95;;
21894;SDS011;11112;51.270;7.224;2023-02-28T01:32:44;7.78;;;4.25;;
21894;SDS011;11112;51.270;7.224;2023-02-28T01:35:11;8.02;;;3.80;;
21894;SDS011;11112;51.270;7.224;2023-02-28T01:37:39;8.55;;;3.90;;
21894;SDS011;11112;51.270;7.224;2023-02-28T01:40:06;9.27;;;4.40;;
21894;SDS011;11112;51.270;7.224;2023-02-28T01:42:36;7.45;;;4.13;;
21894;SDS011;11112;51.270;7.224;2023-02-28T01:45:08;8.60;;;4.13;;
21894;SDS011;11112;51.270;7.224;2023-02-28T01:47:47;8.77;;;4.30;;
21894;SDS011;11112;51.270;7.224;2023-02-28T01:50:19;8.02;;;4.30;;
21894;SDS011;11112;51.270;7.224;2023-02-28T01:52:49;10.35;;;4.70;;
21894;SDS011;11112;51.270;7.224;2023-02-28T01:55:19;10.25;;;4.93;;
21894;SDS011;11112;51.270;7.224;2023-02-28T01:57:50;10.82;;;5.10;;
21894;SDS011;11112;51.270;7.224;2023-02-28T02:00:22;10.73;;;4.75;;
21894;SDS011;11112;51.270;7.224;2023-02-28T02:02:54;8.38;;;4.50;;
21894;SDS011;11112;51.270;7.224;2023-02-28T02:05:24;9.55;;;4.70;;
21894;SDS011;11112;51.270;7.224;2023-02-28T02:07:56;9.95;;;5.00;;
21894;SDS011;11112;51.270;7.224;2023-02-28T02:10:30;11.38;;;5.10;;
21894;SDS011;11112;51.270;7.224;2023-02-28T02:13:08;7.43;;;3.95;;
21894;SDS011;11112;51.270;7.224;2023-02-28T02:15:54;10.57;;;5.03;;
21894;SDS011;11112;51.270;7.224;2023-02-28T02:18:30;8.52;;;4.65;;
21894;SDS011;11112;51.270;7.224;2023-02-28T02:21:10;9.02;;;4.55;;
21894;SDS011;11112;51.270;7.224;2023-02-28T02:27:27;9.03;;;4.40;;
21894;SDS011;11112;51.270;7.224;2023-02-28T02:33:48;11.20;;;4.72;;
21894;SDS011;11112;51.270;7.224;2023-02-28T02:36:40;9.38;;;4.93;;
21894;SDS011;11112;51.270;7.224;2023-02-28T02:39:14;8.40;;;4.45;;
21894;SDS011;11112;51.270;7.224;2023-02-28T02:41:52;8.68;;;4.60;;
21894;SDS011;11112;51.270;7.224;2023-02-28T02:44:21;9.77;;;4.82;;
21894;SDS011;11112;51.270;7.224;2023-02-28T02:46:53;12.18;;;5.00;;
21894;SDS011;11112;51.270;7.224;2023-02-28T02:49:30;11.13;;;5.30;;
21894;SDS011;11112;51.270;7.224;2023-02-28T02:52:00;11.88;;;5.97;;
21894;SDS011;11112;51.270;7.224;2023-02-28T02:54:31;11.85;;;5.90;;
21894;SDS011;11112;51.270;7.224;2023-02-28T02:57:04;13.57;;;5.93;;
21894;SDS011;11112;51.270;7.224;2023-02-28T03:02:06;11.93;;;5.60;;
21894;SDS011;11112;51.270;7.224;2023-02-28T03:04:40;11.88;;;5.60;;
21894;SDS011;11112;51.270;7.224;2023-02-28T03:07:11;11.75;;;5.80;;
21894;SDS011;11112;51.270;7.224;2023-02-28T03:09:38;11.75;;;5.63;;
21894;SDS011;11112;51.270;7.224;2023-02-28T03:12:07;10.48;;;5.88;;
21894;SDS011;11112;51.270;7.224;2023-02-28T03:14:40;9.80;;;5.50;;
21894;SDS011;11112;51.270;7.224;2023-02-28T03:17:27;12.85;;;6.00;;
21894;SDS011;11112;51.270;7.224;2023-02-28T03:20:17;10.77;;;6.07;;
21894;SDS011;11112;51.270;7.224;2023-02-28T03:23:03;12.30;;;6.47;;
21894;SDS011;11112;51.270;7.224;2023-02-28T03:25:43;12.63;;;6.72;;
21894;SDS011;11112;51.270;7.224;2023-02-28T03:28:25;13.23;;;6.70;;
21894;SDS011;11112;51.270;7.224;2023-02-28T03:30:59;12.60;;;6.30;;
21894;SDS011;11112;51.270;7.224;2023-02-28T03:33:36;12.10;;;6.60;;
21894;SDS011;11112;51.270;7.224;2023-02-28T03:36:10;13.18;;;6.25;;
21894;SDS011;11112;51.270;7.224;2023-02-28T03:38:44;13.93;;;6.75;;
21894;SDS011;11112;51.270;7.224;2023-02-28T03:41:16;11.82;;;6.40;;
21894;SDS011;11112;51.270;7.224;2023-02-28T03:43:48;11.75;;;6.82;;
21894;SDS011;11112;51.270;7.224;2023-02-28T03:46:21;12.27;;;6.47;;
21894;SDS011;11112;51.270;7.224;2023-02-28T03:48:52;11.25;;;6.28;;
21894;SDS011;11112;51.270;7.224;2023-02-28T03:51:24;13.40;;;6.22;;
21894;SDS011;11112;51.270;7.224;2023-02-28T03:53:56;9.43;;;6.20;;
21894;SDS011;11112;51.270;7.224;2023-02-28T03:56:27;10.77;;;5.80;;
21894;SDS011;11112;51.270;7.224;2023-02-28T03:59:00;15.32;;;6.63;;
21894;SDS011;11112;51.270;7.224;2023-02-28T04:04:01;12.27;;;6.20;;
21894;SDS011;11112;51.270;7.224;2023-02-28T04:06:31;13.55;;;6.80;;
21894;SDS011;11112;51.270;7.224;2023-02-28T04:09:00;12.70;;;6.43;;
21894;SDS011;11112;51.270;7.224;2023-02-28T04:11:30;12.57;;;6.30;;
21894;SDS011;11112;51.270;7.224;2023-02-28T04:14:00;11.60;;;5.97;;
21894;SDS011;11112;51.270;7.224;2023-02-28T04:16:28;12.13;;;6.00;;
21894;SDS011;11112;51.270;7.224;2023-02-28T04:18:55;13.32;;;6.05;;
21894;SDS011;11112;51.270;7.224;2023-02-28T04:21:27;10.98;;;6.32;;
21894;SDS011;11112;51.270;7.224;2023-02-28T04:23:55;11.38;;;5.80;;
21894;SDS011;11112;51.270;7.224;2023-02-28T04:26:27;10.50;;;6.18;;
21894;SDS011;11112;51.270;7.224;2023-02-28T04:28:55;15.82;;;6.20;;
21894;SDS011;11112;51.270;7.224;2023-02-28T04:31:23;13.40;;;6.28;;
21894;SDS011;11112;51.270;7.224;2023-02-28T04:33:50;12.45;;;6.25;;
21894;SDS011;11112;51.270;7.224;2023-02-28T04:36:17;9.63;;;5.75;;
21894;SDS011;11112;51.270;7.224;2023-02-28T04:38:44;10.73;;;5.97;;
21894;SDS011;11112;51.270;7.224;2023-02-28T04:41:13;12.75;;;6.00;;
21894;SDS011;11112;51.270;7.224;2023-02-28T04:43:41;14.00;;;6.00;;
21894;SDS011;11112;51.270;7.224;2023-02-28T04:46:08;12.70;;;6.55;;
21894;SDS011;11112;51.270;7.224;2023-02-28T04:48:36;14.18;;;7.93;;
21894;SDS011;11112;51.270;7.224;2023-02-28T04:51:05;17.23;;;6.70;;
21894;SDS011;11112;51.270;7.224;2023-02-28T04:53:34;14.23;;;6.97;;
21894;SDS011;11112;51.270;7.224;2023-02-28T04:56:04;11.70;;;6.35;;
21894;SDS011;11112;51.270;7.224;2023-02-28T04:58:34;14.32;;;6.30;;
21894;SDS011;11112;51.270;7.224;2023-02-28T05:01:01;9.18;;;5.80;;
21894;SDS011;11112;51.270;7.224;2023-02-28T05:03:38;10.60;;;5.95;;
21894;SDS011;11112;51.270;7.224;2023-02-28T05:06:06;11.07;;;5.90;;
21894;SDS011;11112;51.270;7.224;2023-02-28T05:08:33;11.10;;;6.25;;
21894;SDS011;11112;51.270;7.224;2023-02-28T05:11:00;13.05;;;6.35;;
21894;SDS011;11112;51.270;7.224;2023-02-28T05:13:28;17.52;;;6.90;;
21894;SDS011;11112;51.270;7.224;2023-02-28T05:15:57;16.48;;;6.88;;
21894;SDS011;11112;51.270;7.224;2023-02-28T05:18:24;13.07;;;6.40;;
21894;SDS011;11112;51.270;7.224;2023-02-28T05:20:51;12.32;;;7.22;;
21894;SDS011;11112;51.270;7.224;2023-02-28T05:23:18;14.02;;;7.85;;
21894;SDS011;11112;51.270;7.224;2023-02-28T05:25:48;12.60;;;7.28;;
21894;SDS011;11112;51.270;7.224;2023-02-28T05:28:16;11.23;;;6.40;;
21894;SDS011;11112;51.270;7.224;2023-02-28T05:30:44;13.02;;;7.00;;
21894;SDS011;11112;51.270;7.224;2023-02-28T05:33:12;11.48;;;6.55;;
21894;SDS011;11112;51.270;7.224;2023-02-28T05:35:40;13.15;;;6.35;;
21894;SDS011;11112;51.270;7.224;2023-02-28T05:38:08;12.38;;;6.13;;
21894;SDS011;11112;51.270;7.224;2023-02-28T05:40:37;11.85;;;6.22;;
21894;SDS011;11112;51.270;7.224;2023-02-28T05:43:05;10.32;;;5.50;;
21894;SDS011;11112;51.270;7.224;2023-02-28T05:45:35;11.00;;;5.28;;
21894;SDS011;11112;51.270;7.224;2023-02-28T05:48:02;11.90;;;5.70;;
21894;SDS011;11112;51.270;7.224;2023-02-28T05:50:31;9.77;;;5.40;;
21894;SDS011;11112;51.270;7.224;2023-02-28T05:52:58;9.45;;;4.57;;
21894;SDS011;11112;51.270;7.224;2023-02-28T05:55:25;8.38;;;4.38;;
21894;SDS011;11112;51.270;7.224;2023-02-28T05:57:52;10.93;;;5.10;;
21894;SDS011;11112;51.270;7.224;2023-02-28T06:00:19;7.85;;;4.95;;
21894;SDS011;11112;51.270;7.224;2023-02-28T06:02:47;8.77;;;5.18;;
21894;SDS011;11112;51.270;7.224;2023-02-28T06:05:15;12.20;;;5.70;;
21894;SDS011;11112;51.270;7.224;2023-02-28T06:07:45;8.88;;;5.20;;
21894;SDS011;11112;51.270;7.224;2023-02-28T06:10:12;9.77;;;5.28;;
21894;SDS011;11112;51.270;7.224;2023-02-28T06:12:39;10.38;;;5.30;;
21894;SDS011;11112;51.270;7.224;2023-02-28T06:15:07;10.98;;;5.22;;
21894;SDS011;11112;51.270;7.224;2023-02-28T06:17:39;9.75;;;5.18;;
21894;SDS011;11112;51.270;7.224;2023-02-28T06:20:07;10.30;;;5.63;;
21894;SDS011;11112;51.270;7.224;2023-02-28T06:22:37;8.23;;;4.65;;
21894;SDS011;11112;51.270;7.224;2023-02-28T06:25:07;12.00;;;5.35;;
21894;SDS011;11112;51.270;7.224;2023-02-28T06:27:36;9.77;;;5.60;;
21894;SDS011;11112;51.270;7.224;2023-02-28T06:30:03;9.48;;;5.22;;
21894;SDS011;11112;51.270;7.224;2023-02-28T06:32:31;9.40;;;5.32;;
21894;SDS011;11112;51.270;7.224;2023-02-28T06:34:58;11.52;;;5.43;;
21894;SDS011;11112;51.270;7.224;2023-02-28T06:37:25;12.65;;;5.20;;
21894;SDS011;11112;51.270;7.224;2023-02-28T06:39:53;9.02;;;5.13;;
21894;SDS011;11112;51.270;7.224;2023-02-28T06:42:23;9.88;;;5.05;;
21894;SDS011;11112;51.270;7.224;2023-02-28T06:44:53;10.52;;;5.10;;
21894;SDS011;11112;51.270;7.224;2023-02-28T06:47:21;10.95;;;5.28;;
21894;SDS011;11112;51.270;7.224;2023-02-28T06:49:49;10.40;;;5.25;;
21894;SDS011;11112;51.270;7.224;2023-02-28T06:52:17;11.70;;;4.90;;
21894;SDS011;11112;51.270;7.224;2023-02-28T06:54:44;9.23;;;4.85;;
21894;SDS011;11112;51.270;7.224;2023-02-28T06:57:12;9.93;;;5.22;;
21894;SDS011;11112;51.270;7.224;2023-02-28T06:59:40;9.65;;;4.90;;
21894;SDS011;11112;51.270;7.224;2023-02-28T07:02:08;11.85;;;4.93;;
21894;SDS011;11112;51.270;7.224;2023-02-28T07:04:35;10.20;;;5.70;;
21894;SDS011;11112;51.270;7.224;2023-02-28T07:07:04;16.23;;;5.80;;
21894;SDS011;11112;51.270;7.224;2023-02-28T07:09:31;14.27;;;6.07;;
21894;SDS011;11112;51.270;7.224;2023-02-28T07:11:59;12.77;;;6.45;;
21894;SDS011;11112;51.270;7.224;2023-02-28T07:14:26;12.77;;;7.25;;
21894;SDS011;11112;51.270;7.224;2023-02-28T07:16:55;13.00;;;6.90;;
21894;SDS011;11112;51.270;7.224;2023-02-28T07:19:22;11.15;;;7.00;;
21894;SDS011;11112;51.270;7.224;2023-02-28T07:21:49;17.90;;;8.00;;
21894;SDS011;11112;51.270;7.224;2023-02-28T07:24:16;19.55;;;8.48;;
21894;SDS011;11112;51.270;7.224;2023-02-28T07:26:43;16.38;;;8.52;;
21894;SDS011;11112;51.270;7.224;2023-02-28T07:29:10;15.30;;;8.68;;
21894;SDS011;11112;51.270;7.224;2023-02-28T07:31:37;17.25;;;8.90;;
21894;SDS011;11112;51.270;7.224;2023-02-28T07:34:06;19.48;;;8.88;;
21894;SDS011;11112;51.270;7.224;2023-02-28T07:36:34;19.23;;;8.30;;
21894;SDS011;11112;51.270;7.224;2023-02-28T07:39:01;14.40;;;7.93;;
21894;SDS011;11112;51.270;7.224;2023-02-28T07:41:29;18.27;;;8.10;;
21894;SDS011;11112;51.270;7.224;2023-02-28T07:43:59;17.30;;;7.90;;
21894;SDS011;11112;51.270;7.224;2023-02-28T07:46:26;15.80;;;7.47;;
21894;SDS011;11112;51.270;7.224;2023-02-28T07:48:54;14.90;;;7.30;;
21894;SDS011;11112;51.270;7.224;2023-02-28T07:51:25;12.80;;;7.30;;
21894;SDS011;11112;51.270;7.224;2023-02-28T07:53:52;14.10;;;6.90;;
21894;SDS011;11112;51.270;7.224;2023-02-28T07:56:20;12.00;;;6.47;;
21894;SDS011;11112;51.270;7.224;2023-02-28T07:58:47;18.75;;;6.88;;
21894;SDS011;11112;51.270;7.224;2023-02-28T08:01:14;11.95;;;5.97;;
21894;SDS011;11112;51.270;7.224;2023-02-28T08:03:42;12.10;;;6.20;;
21894;SDS011;11112;51.270;7.224;2023-02-28T08:06:15;16.58;;;6.78;;
21894;SDS011;11112;51.270;7.224;2023-02-28T08:08:46;17.67;;;6.90;;
21894;SDS011;11112;51.270;7.224;2023-02-28T08:11:13;16.10;;;6.68;;
21894;SDS011;11112;51.270;7.224;2023-02-28T08:13:41;12.70;;;6.57;;
21894;SDS011;11112;51.270;7.224;2023-02-28T08:16:10;15.35;;;6.38;;
21894;SDS011;11112;51.270;7.224;2023-02-28T08:18:40;15.43;;;5.90;;
21894;SDS011;11112;51.270;7.224;2023-02-28T08:21:07;14.27;;;5.80;;
21894;SDS011;11112;51.270;7.224;2023-02-28T08:23:35;13.50;;;5.70;;
21894;SDS011;11112;51.270;7.224;2023-02-28T08:26:04;12.40;;;5.80;;
21894;SDS011;11112;51.270;7.224;2023-02-28T08:28:32;10.68;;;4.97;;
21894;SDS011;11112;51.270;7.224;2023-02-28T08:30:59;9.00;;;4.88;;
21894;SDS011;11112;51.270;7.224;2023-02-28T08:33:27;12.23;;;5.28;;
21894;SDS011;11112;51.270;7.224;2023-02-28T08:35:54;9.60;;;4.20;;
21894;SDS011;11112;51.270;7.224;2023-02-28T08:38:22;8.40;;;3.88;;
21894;SDS011;11112;51.270;7.224;2023-02-28T08:40:49;6.25;;;3.63;;
21894;SDS011;11112;51.270;7.224;2023-02-28T08:43:24;7.32;;;4.07;;
21894;SDS011;11112;51.270;7.224;2023-02-28T08:45:52;7.72;;;3.58;;
21894;SDS011;11112;51.270;7.224;2023-02-28T08:48:19;10.82;;;4.00;;
21894;SDS011;11112;51.270;7.224;2023-02-28T08:50:54;8.00;;;4.05;;
21894;SDS011;11112;51.270;7.224;2023-02-28T08:53:22;6.57;;;3.45;;
21894;SDS011;11112;51.270;7.224;2023-02-28T08:55:55;7.20;;;3.42;;
21894;SDS011;11112;51.270;7.224;2023-02-28T08:58:26;11.07;;;3.63;;
21894;SDS011;11112;51.270;7.224;2023-02-28T09:00:53;6.35;;;3.45;;
21894;SDS011;11112;51.270;7.224;2023-02-28T09:03:22;6.35;;;3.33;;
21894;SDS011;11112;51.270;7.224;2023-02-28T09:05:53;5.50;;;3.28;;
21894;SDS011;11112;51.270;7.224;2023-02-28T09:08:22;6.22;;;3.08;;
21894;SDS011;11112;51.270;7.224;2023-02-28T09:10:50;6.32;;;2.60;;
21894;SDS011;11112;51.270;7.224;2023-02-28T09:13:17;5.35;;;2.63;;
21894;SDS011;11112;51.270;7.224;2023-02-28T09:15:46;5.68;;;2.70;;
21894;SDS011;11112;51.270;7.224;2023-02-28T09:18:13;4.95;;;2.40;;
21894;SDS011;11112;51.270;7.224;2023-02-28T09:20:41;5.45;;;2.40;;
21894;SDS011;11112;51.270;7.224;2023-02-28T09:23:09;5.20;;;2.50;;
21894;SDS011;11112;51.270;7.224;2023-02-28T09:25:44;7.18;;;2.67;;
21894;SDS011;11112;51.270;7.224;2023-02-28T09:28:12;4.65;;;2.53;;
21894;SDS011;11112;51.270;7.224;2023-02-28T09:30:41;5.65;;;2.67;;
21894;SDS011;11112;51.270;7.224;2023-02-28T09:33:13;7.10;;;2.80;;
21894;SDS011;11112;51.270;7.224;2023-02-28T09:35:41;5.13;;;2.70;;
21894;SDS011;11112;51.270;7.224;2023-02-28T09:38:08;5.85;;;2.75;;
21894;SDS011;11112;51.270;7.224;2023-02-28T09:40:36;6.05;;;2.78;;
21894;SDS011;11112;51.270;7.224;2023-02-28T09:43:09;5.00;;;2.40;;
21894;SDS011;11112;51.270;7.224;2023-02-28T09:45:40;3.85;;;1.80;;
21894;SDS011;11112;51.270;7.224;2023-02-28T09:48:14;4.93;;;2.20;;
21894;SDS011;11112;51.270;7.224;2023-02-28T09:50:48;4.15;;;2.10;;
21894;SDS011;11112;51.270;7.224;2023-02-28T09:53:19;6.72;;;2.50;;
21894;SDS011;11112;51.270;7.224;2023-02-28T09:55:54;4.95;;;2.10;;
21894;SDS011;11112;51.270;7.224;2023-02-28T09:58:33;6.70;;;2.22;;
21894;SDS011;11112;51.270;7.224;2023-02-28T10:01:31;3.97;;;1.80;;
21894;SDS011;11112;51.270;7.224;2023-02-28T10:04:08;3.90;;;1.88;;
21894;SDS011;11112;51.270;7.224;2023-02-28T10:06:44;3.83;;;1.80;;
21894;SDS011;11112;51.270;7.224;2023-02-28T10:09:17;6.65;;;1.95;;
21894;SDS011;11112;51.270;7.224;2023-02-28T10:11:50;3.83;;;2.03;;
21894;SDS011;11112;51.270;7.224;2023-02-28T10:14:21;3.90;;;1.80;;
21894;SDS011;11112;51.270;7.224;2023-02-28T10:16:53;6.32;;;2.00;;
21894;SDS011;11112;51.270;7.224;2023-02-28T10:19:30;4.65;;;1.88;;
21894;SDS011;11112;51.270;7.224;2023-02-28T10:22:03;4.65;;;1.90;;
21894;SDS011;11112;51.270;7.224;2023-02-28T10:24:41;6.32;;;2.10;;
21894;SDS011;11112;51.270;7.224;2023-02-28T10:27:13;3.72;;;2.00;;
21894;SDS011;11112;51.270;7.224;2023-02-28T10:29:49;4.30;;;1.90;;
21894;SDS011;11112;51.270;7.224;2023-02-28T10:32:19;7.97;;;1.90;;
21894;SDS011;11112;51.270;7.224;2023-02-28T10:34:52;4.18;;;1.90;;
21894;SDS011;11112;51.270;7.224;2023-02-28T10:37:23;4.07;;;1.88;;
21894;SDS011;11112;51.270;7.224;2023-02-28T10:39:51;6.35;;;2.38;;
21894;SDS011;11112;51.270;7.224;2023-02-28T10:42:23;7.60;;;2.13;;
21894;SDS011;11112;51.270;7.224;2023-02-28T10:45:04;5.55;;;1.90;;
21894;SDS011;11112;51.270;7.224;2023-02-28T10:47:39;4.03;;;2.20;;
21894;SDS011;11112;51.270;7.224;2023-02-28T10:50:30;4.22;;;2.08;;
21894;SDS011;11112;51.270;7.224;2023-02-28T10:53:06;5.38;;;2.17;;
21894;SDS011;11112;51.270;7.224;2023-02-28T10:56:02;4.38;;;2.00;;
21894;SDS011;11112;51.270;7.224;2023-02-28T10:58:47;4.30;;;2.08;;
21894;SDS011;11112;51.270;7.224;2023-02-28T11:01:20;5.35;;;1.95;;
21894;SDS011;11112;51.270;7.224;2023-02-28T11:03:51;3.65;;;2.05;;
21894;SDS011;11112;51.270;7.224;2023-02-28T11:06:22;4.78;;;2.30;;
21894;SDS011;11112;51.270;7.224;2023-02-28T11:08:53;3.80;;;2.03;;
21894;SDS011;11112;51.270;7.224;2023-02-28T11:11:41;5.10;;;2.10;;
21894;SDS011;11112;51.270;7.224;2023-02-28T11:14:38;4.05;;;2.25;;
21894;SDS011;11112;51.270;7.224;2023-02-28T11:17:27;3.88;;;1.98;;
21894;SDS011;11112;51.270;7.224;2023-02-28T11:23:03;3.55;;;2.03;;
21894;SDS011;11112;51.270;7.224;2023-02-28T11:25:32;4.97;;;2.38;;
21894;SDS011;11112;51.270;7.224;2023-02-28T11:28:05;3.53;;;1.80;;
21894;SDS011;11112;51.270;7.224;2023-02-28T11:30:59;3.30;;;2.15;;
21894;SDS011;11112;51.270;7.224;2023-02-28T11:33:31;6.22;;;2.78;;
21894;SDS011;11112;51.270;7.224;2023-02-28T11:36:11;6.45;;;2.80;;
21894;SDS011;11112;51.270;7.224;2023-02-28T11:38:46;4.15;;;2.40;;
21894;SDS011;11112;51.270;7.224;2023-02-28T11:44:23;5.32;;;2.53;;
21894;SDS011;11112;51.270;7.224;2023-02-28T11:47:05;4.85;;;2.78;;
21894;SDS011;11112;51.270;7.224;2023-02-28T11:49:43;5.95;;;2.70;;
21894;SDS011;11112;51.270;7.224;2023-02-28T11:52:29;6.70;;;2.25;;
21894;SDS011;11112;51.270;7.224;2023-02-28T11:55:11;5.18;;;2.35;;
21894;SDS011;11112;51.270;7.224;2023-02-28T11:57:49;5.93;;;2.47;;
21894;SDS011;11112;51.270;7.224;2023-02-28T12:04:10;4.32;;;2.45;;
21894;SDS011;11112;51.270;7.224;2023-02-28T12:06:52;6.15;;;2.28;;
21894;SDS011;11112;51.270;7.224;2023-02-28T12:09:38;6.75;;;2.60;;
21894;SDS011;11112;51.270;7.224;2023-02-28T12:12:21;6.95;;;2.20;;
21894;SDS011;11112;51.270;7.224;2023-02-28T12:15:20;3.77;;;2.40;;
21894;SDS011;11112;51.270;7.224;2023-02-28T12:19:27;5.47;;;2.35;;
21894;SDS011;11112;51.270;7.224;2023-02-28T12:25:20;7.57;;;2.13;;
21894;SDS011;11112;51.270;7.224;2023-02-28T12:28:24;4.85;;;2.30;;
21894;SDS011;11112;51.270;7.224;2023-02-28T12:30:57;6.75;;;2.50;;
21894;SDS011;11112;51.270;7.224;2023-02-28T12:33:34;7.47;;;2.80;;
21894;SDS011;11112;51.270;7.224;2023-02-28T12:36:09;7.13;;;2.95;;
21894;SDS011;11112;51.270;7.224;2023-02-28T12:38:43;7.43;;;2.80;;
21894;SDS011;11112;51.270;7.224;2023-02-28T12:41:15;6.18;;;2.60;;
21894;SDS011;11112;51.270;7.224;2023-02-28T12:43:48;4.93;;;2.70;;
21894;SDS011;11112;51.270;7.224;2023-02-28T12:46:25;5.80;;;2.83;;
21894;SDS011;11112;51.270;7.224;2023-02-28T12:49:00;6.63;;;2.60;;
21894;SDS011;11112;51.270;7.224;2023-02-28T12:51:33;4.10;;;2.55;;
21894;SDS011;11112;51.270;7.224;2023-02-28T12:54:04;4.57;;;2.78;;
21894;SDS011;11112;51.270;7.224;2023-02-28T12:56:47;6.45;;;3.13;;
21894;SDS011;11112;51.270;7.224;2023-02-28T12:59:25;5.20;;;2.95;;
21894;SDS011;11112;51.270;7.224;2023-02-28T13:05:27;7.45;;;2.92;;
21894;SDS011;11112;51.270;7.224;2023-02-28T13:11:31;4.97;;;2.90;;
21894;SDS011;11112;51.270;7.224;2023-02-28T13:14:16;5.20;;;2.90;;
21894;SDS011;11112;51.270;7.224;2023-02-28T13:16:59;8.25;;;2.90;;
21894;SDS011;11112;51.270;7.224;2023-02-28T13:19:31;4.88;;;2.65;;
21894;SDS011;11112;51.270;7.224;2023-02-28T13:21:59;5.10;;;2.55;;
21894;SDS011;11112;51.270;7.224;2023-02-28T13:24:39;4.38;;;2.63;;
21894;SDS011;11112;51.270;7.224;2023-02-28T13:36:40;5.15;;;2.63;;
21894;SDS011;11112;51.270;7.224;2023-02-28T13:42:23;6.25;;;2.92;;
21894;SDS011;11112;51.270;7.224;2023-02-28T13:45:21;5.40;;;3.13;;
21894;SDS011;11112;51.270;7.224;2023-02-28T13:47:53;5.05;;;2.50;;
21894;SDS011;11112;51.270;7.224;2023-02-28T13:50:29;5.75;;;2.65;;
21894;SDS011;11112;51.270;7.224;2023-02-28T13:56:19;4.50;;;2.83;;
21894;SDS011;11112;51.270;7.224;2023-02-28T13:59:04;4.72;;;2.80;;
21894;SDS011;11112;51.270;7.224;2023-02-28T14:01:51;6.90;;;2.95;;
21894;SDS011;11112;51.270;7.224;2023-02-28T14:07:31;5.57;;;3.10;;
21894;SDS011;11112;51.270;7.224;2023-02-28T14:10:04;5.22;;;2.88;;
21894;SDS011;11112;51.270;7.224;2023-02-28T14:12:51;7.60;;;3.08;;
21894;SDS011;11112;51.270;7.224;2023-02-28T14:15:26;5.32;;;3.20;;
21894;SDS011;11112;51.270;7.224;2023-02-28T14:18:14;5.47;;;2.78;;
21894;SDS011;11112;51.270;7.224;2023-02-28T14:20:48;6.90;;;2.67;;
21894;SDS011;11112;51.270;7.224;2023-02-28T14:27:00;5.22;;;2.70;;
21894;SDS011;11112;51.270;7.224;2023-02-28T14:33:25;7.25;;;3.30;;
21894;SDS011;11112;51.270;7.224;2023-02-28T14:36:04;6.00;;;3.45;;
21894;SDS011;11112;51.270;7.224;2023-02-28T14:38:40;4.90;;;3.03;;
21894;SDS011;11112;51.270;7.224;2023-02-28T14:41:18;5.72;;;3.20;;
21894;SDS011;11112;51.270;7.224;2023-02-28T14:43:55;5.53;;;3.17;;
21894;SDS011;11112;51.270;7.224;2023-02-28T14:46:37;5.32;;;3.03;;
21894;SDS011;11112;51.270;7.224;2023-02-28T14:49:12;8.32;;;3.13;;
21894;SDS011;11112;51.270;7.224;2023-02-28T14:51:47;4.80;;;3.17;;
21894;SDS011;11112;51.270;7.224;2023-02-28T14:54:17;5.13;;;3.13;;
21894;SDS011;11112;51.270;7.224;2023-02-28T14:56:50;7.32;;;3.20;;
21894;SDS011;11112;51.270;7.224;2023-02-28T14:59:26;5.07;;;3.08;;
21894;SDS011;11112;51.270;7.224;2023-02-28T15:02:16;6.93;;;3.45;;
21894;SDS011;11112;51.270;7.224;2023-02-28T15:04:55;6.93;;;2.90;;
21894;SDS011;11112;51.270;7.224;2023-02-28T15:07:24;7.38;;;3.20;;
21894;SDS011;11112;51.270;7.224;2023-02-28T15:10:13;5.35;;;2.97;;
21894;SDS011;11112;51.270;7.224;2023-02-28T15:13:05;5.68;;;3.30;;
21894;SDS011;11112;51.270;7.224;2023-02-28T15:15:42;5.88;;;3.45;;
21894;SDS011;11112;51.270;7.224;2023-02-28T15:18:15;6.90;;;3.30;;
21894;SDS011;11112;51.270;7.224;2023-02-28T15:20:52;5.80;;;3.50;;
21894;SDS011;11112;51.270;7.224;2023-02-28T15:23:20;6.25;;;3.25;;
21894;SDS011;11112;51.270;7.224;2023-02-28T15:25:48;5.72;;;3.05;;
21894;SDS011;11112;51.270;7.224;2023-02-28T15:28:20;8.52;;;3.80;;
21894;SDS011;11112;51.270;7.224;2023-02-28T15:30:54;5.60;;;3.30;;
21894;SDS011;11112;51.270;7.224;2023-02-28T15:33:27;7.07;;;3.80;;
21894;SDS011;11112;51.270;7.224;2023-02-28T15:36:10;6.57;;;3.90;;
21894;SDS011;11112;51.270;7.224;2023-02-28T15:41:20;5.03;;;3.22;;
21894;SDS011;11112;51.270;7.224;2023-02-28T15:46:55;5.93;;;3.45;;
21894;SDS011;11112;51.270;7.224;2023-02-28T15:49:28;5.72;;;3.60;;
21894;SDS011;11112;51.270;7.224;2023-02-28T15:52:00;5.72;;;3.85;;
21894;SDS011;11112;51.270;7.224;2023-02-28T15:54:29;6.18;;;3.80;;
21894;SDS011;11112;51.270;7.224;2023-02-28T15:57:01;6.25;;;3.80;;
21894;SDS011;11112;51.270;7.224;2023-02-28T15:59:36;6.78;;;3.78;;
21894;SDS011;11112;51.270;7.224;2023-02-28T16:02:16;11.73;;;3.80;;
21894;SDS011;11112;51.270;7.224;2023-02-28T16:04:56;7.05;;;4.20;;
21894;SDS011;11112;51.270;7.224;2023-02-28T16:07:39;7.13;;;4.05;;
21894;SDS011;11112;51.270;7.224;2023-02-28T16:10:09;7.22;;;4.13;;
21894;SDS011;11112;51.270;7.224;2023-02-28T16:12:39;8.40;;;3.90;;
21894;SDS011;11112;51.270;7.224;2023-02-28T16:15:20;9.15;;;4.20;;
21894;SDS011;11112;51.270;7.224;2023-02-28T16:17:50;6.30;;;4.20;;
21894;SDS011;11112;51.270;7.224;2023-02-28T16:20:19;8.20;;;4.40;;